createdAt,value
2023-01-09T00:01:22.102Z,98259.00
2023-01-09T00:03:27.874Z,98259.81
2023-01-09T00:05:32.026Z,98256.47
2023-01-09T00:07:39.454Z,98261.72
2023-01-09T00:09:44.135Z,98259.00
2023-01-09T00:11:50.842Z,98280.00
2023-01-09T00:13:55.143Z,98270.59
2023-01-09T00:16:01.098Z,98275.13
2023-01-09T00:18:05.827Z,98277.75
2023-01-09T00:20:11.662Z,98284.94
2023-01-09T00:22:15.443Z,98287.56
2023-01-09T00:24:19.017Z,98298.06
2023-01-09T00:26:22.976Z,98301.50
2023-01-09T00:28:27.093Z,98317.25
2023-01-09T00:30:32.231Z,98327.88
2023-01-09T00:32:37.335Z,98326.81
2023-01-09T00:34:43.315Z,98315.34
2023-01-09T00:36:47.131Z,98323.91
2023-01-09T00:38:50.691Z,98323.53
2023-01-09T00:40:57.158Z,98325.91
2023-01-09T00:43:01.606Z,98331.03
2023-01-09T00:45:09.823Z,98321.22
2023-01-09T00:47:19.540Z,98328.16
2023-01-09T00:49:26.165Z,98324.56
2023-01-09T00:51:31.273Z,98336.84
2023-01-09T00:53:37.727Z,98333.41
2023-01-09T00:55:43.685Z,98328.16
2023-01-09T00:57:47.492Z,98343.78
2023-01-09T00:59:51.294Z,98333.84
2023-01-09T01:01:55.443Z,98343.41
2023-01-09T01:04:20.707Z,98346.84
2023-01-09T01:06:45.600Z,98351.03
2023-01-09T01:08:50.627Z,98354.22
2023-01-09T01:10:56.870Z,98350.50
2023-01-09T01:13:02.369Z,98345.97
2023-01-09T01:15:08.051Z,98356.34
2023-01-09T01:17:12.302Z,98350.97
2023-01-09T01:19:17.084Z,98361.19
2023-01-09T01:21:23.032Z,98364.56
2023-01-09T01:23:29.308Z,98360.13
2023-01-09T01:25:33.215Z,98373.13
2023-01-09T01:27:36.887Z,98363.47
2023-01-09T01:29:40.455Z,98371.22
2023-01-09T01:31:44.011Z,98371.22
2023-01-09T01:33:48.421Z,98386.16
2023-01-09T01:35:52.976Z,98387.81
2023-01-09T01:37:56.528Z,98391.28
2023-01-09T01:40:01.629Z,98394.72
2023-01-09T01:42:07.203Z,98398.06
2023-01-09T01:44:43.709Z,98398.91
2023-01-09T01:46:48.743Z,98403.19
2023-01-09T01:48:57.312Z,98382.19
2023-01-09T01:51:04.931Z,98396.97
2023-01-09T01:53:15.253Z,98414.41
2023-01-09T01:55:22.116Z,98406.53
2023-01-09T01:57:26.547Z,98413.59
2023-01-09T01:59:36.269Z,98414.41
2023-01-09T02:01:44.152Z,98428.63
2023-01-09T02:03:48.579Z,98419.09
2023-01-09T02:05:53.536Z,98442.84
2023-01-09T02:07:57.268Z,98450.03
2023-01-09T02:10:01.993Z,98450.31
2023-01-09T02:12:19.799Z,98444.44
2023-01-09T02:14:27.111Z,98451.50
2023-01-09T02:17:01.235Z,98465.72
2023-01-09T02:19:18.202Z,98473.75
2023-01-09T02:21:32.651Z,98482.56
2023-01-09T02:24:15.026Z,98489.50
2023-01-09T02:27:01.083Z,98495.44
2023-01-09T02:29:39.290Z,98507.50
2023-01-09T02:31:55.203Z,98497.81
2023-01-09T02:34:08.040Z,98523.13
2023-01-09T02:36:18.639Z,98522.06
2023-01-09T02:38:30.562Z,98539.63
2023-01-09T02:40:41.098Z,98536.88
2023-01-09T02:42:48.052Z,98558.97
2023-01-09T02:44:52.585Z,98554.66
2023-01-09T02:47:06.389Z,98565.31
2023-01-09T02:49:10.402Z,98573.19
2023-01-09T02:51:23.299Z,98582.03
2023-01-09T02:53:45.793Z,98583.09
2023-01-09T02:56:04.980Z,98595.41
2023-01-09T02:58:11.859Z,98605.09
2023-01-09T03:00:32.872Z,98618.22
2023-01-09T03:02:52.301Z,98628.47
2023-01-09T03:05:05.467Z,98631.81
2023-01-09T03:07:12.705Z,98620.22
2023-01-09T03:09:20.548Z,98636.84
2023-01-09T03:11:28.269Z,98650.69
2023-01-09T03:13:36.412Z,98668.13
2023-01-09T03:15:43.825Z,98665.50
2023-01-09T03:17:51.200Z,98680.19
2023-01-09T03:19:56.752Z,98679.25
2023-01-09T03:22:01.816Z,98686.03
2023-01-09T03:24:08.620Z,98686.03
2023-01-09T03:26:13.527Z,98708.59
2023-01-09T03:28:28.628Z,98710.16
2023-01-09T03:30:34.882Z,98712.78
2023-01-09T03:32:38.555Z,98726.78
2023-01-09T03:34:43.510Z,98741.56
2023-01-09T03:36:47.223Z,98746.81
2023-01-09T03:38:51.593Z,98749.56
2023-01-09T03:40:55.320Z,98772.41
2023-01-09T03:42:59.042Z,98775.28
2023-01-09T03:45:02.825Z,98776.34
2023-01-09T03:47:07.255Z,98803.56
2023-01-09T03:49:10.955Z,98802.13
2023-01-09T03:51:16.935Z,98812.88
2023-01-09T03:53:22.409Z,98821.00
2023-01-09T03:55:25.870Z,98816.72
2023-01-09T03:57:29.953Z,98820.41
2023-01-09T03:59:33.666Z,98817.78
2023-01-09T04:01:37.303Z,98823.16
2023-01-09T04:03:41.530Z,98822.28
2023-01-09T04:05:46.534Z,98829.09
2023-01-09T04:07:51.391Z,98833.53
2023-01-09T04:09:55.038Z,98842.38
2023-01-09T04:11:58.419Z,98851.06
2023-01-09T04:14:02.012Z,98851.06
2023-01-09T04:16:06.033Z,98864.22
2023-01-09T04:18:10.065Z,98867.69
2023-01-09T04:20:13.898Z,98871.16
2023-01-09T04:22:17.667Z,98876.41
2023-01-09T04:24:22.561Z,98879.03
2023-01-09T04:26:26.301Z,98879.97
2023-01-09T04:28:29.836Z,98879.16
2023-01-09T04:30:33.508Z,98881.06
2023-01-09T04:32:37.242Z,98881.28
2023-01-09T04:34:40.661Z,98886.66
2023-01-09T04:36:44.168Z,98889.50
2023-01-09T04:38:47.422Z,98889.75
2023-01-09T04:40:52.200Z,98894.25
2023-01-09T04:42:55.523Z,98892.81
2023-01-09T04:44:58.787Z,98900.06
2023-01-09T04:47:02.350Z,98916.81
2023-01-09T04:49:05.633Z,98916.91
2023-01-09T04:51:08.869Z,98919.53
2023-01-09T04:53:12.091Z,98922.16
2023-01-09T04:55:15.410Z,98928.25
2023-01-09T04:57:20.374Z,98917.13
2023-01-09T04:59:23.779Z,98938.34
2023-01-09T05:01:27.096Z,98937.66
2023-01-09T05:03:30.414Z,98941.31
2023-01-09T05:05:33.755Z,98951.84
2023-01-09T05:07:37.060Z,98950.97
2023-01-09T05:09:40.275Z,98962.41
2023-01-09T05:11:43.577Z,98952.88
2023-01-09T05:13:48.265Z,98958.13
2023-01-09T05:15:51.518Z,98961.69
2023-01-09T05:17:54.834Z,98972.22
2023-01-09T05:19:58.113Z,98972.31
2023-01-09T05:22:01.308Z,98979.34
2023-01-09T05:24:04.705Z,98976.94
2023-01-09T05:26:07.893Z,98987.44
2023-01-09T05:28:11.266Z,98985.03
2023-01-09T05:30:18.136Z,98992.09
2023-01-09T05:32:21.671Z,98992.28
2023-01-09T05:34:25.432Z,98999.34
2023-01-09T05:36:29.424Z,99001.13
2023-01-09T05:38:32.601Z,99009.09
2023-01-09T05:40:40.310Z,99015.31
2023-01-09T05:42:44.953Z,99018.06
2023-01-09T05:44:48.229Z,99018.13
2023-01-09T05:46:52.856Z,99019.09
2023-01-09T05:48:56.203Z,99024.53
2023-01-09T05:50:59.426Z,99028.13
2023-01-09T05:53:02.719Z,99035.25
2023-01-09T05:55:07.031Z,99033.59
2023-01-09T05:57:10.355Z,99042.31
2023-01-09T05:59:13.659Z,99034.53
2023-01-09T06:01:17.045Z,99036.44
2023-01-09T06:03:22.241Z,99037.38
2023-01-09T06:05:25.524Z,99038.34
2023-01-09T06:07:28.990Z,99045.34
2023-01-09T06:09:32.525Z,99061.19
2023-01-09T06:11:38.393Z,99059.41
2023-01-09T06:13:41.697Z,99075.25
2023-01-09T06:15:45.157Z,99072.75
2023-01-09T06:17:48.826Z,99074.53
2023-01-09T06:19:53.490Z,99086.09
2023-01-09T06:21:56.779Z,99095.75
2023-01-09T06:24:00.525Z,99092.38
2023-01-09T06:26:03.815Z,99097.63
2023-01-09T06:28:07.211Z,99101.19
2023-01-09T06:30:11.646Z,99110.03
2023-01-09T06:32:15.011Z,99116.09
2023-01-09T06:34:18.196Z,99118.84
2023-01-09T06:36:23.224Z,99116.22
2023-01-09T06:38:26.836Z,99126.59
2023-01-09T06:40:30.424Z,99132.78
2023-01-09T06:42:33.980Z,99137.19
2023-01-09T06:44:37.480Z,99133.72
2023-01-09T06:46:41.228Z,99140.88
2023-01-09T06:48:44.685Z,99149.56
2023-01-09T06:50:49.740Z,99149.66
2023-01-09T06:52:54.634Z,99154.19
2023-01-09T06:54:58.355Z,99160.38
2023-01-09T06:57:02.283Z,99162.19
2023-01-09T06:59:05.900Z,99164.81
2023-01-09T07:01:09.767Z,99180.53
2023-01-09T07:03:19.875Z,99178.84
2023-01-09T07:05:23.733Z,99187.56
2023-01-09T07:07:27.232Z,99184.09
2023-01-09T07:09:31.929Z,99187.66
2023-01-09T07:11:35.775Z,99207.72
2023-01-09T07:13:39.482Z,99209.47
2023-01-09T07:15:43.423Z,99217.44
2023-01-09T07:17:47.197Z,99227.94
2023-01-09T07:19:51.098Z,99239.31
2023-01-09T07:21:54.674Z,99225.31
2023-01-09T07:23:58.294Z,99236.69
2023-01-09T07:26:05.758Z,99241.81
2023-01-09T07:28:09.455Z,99238.25
2023-01-09T07:30:14.255Z,99243.50
2023-01-09T07:32:17.874Z,99252.31
2023-01-09T07:34:21.753Z,99249.91
2023-01-09T07:36:25.678Z,99256.06
2023-01-09T07:38:29.126Z,99264.06
2023-01-09T07:40:32.958Z,99271.06
2023-01-09T07:42:37.821Z,99271.16
2023-01-09T07:44:41.688Z,99281.75
2023-01-09T07:46:45.322Z,99289.72
2023-01-09T07:48:49.181Z,99288.97
2023-01-09T07:50:52.955Z,99295.19
2023-01-09T07:52:56.632Z,99306.59
2023-01-09T07:55:00.259Z,99311.00
2023-01-09T07:57:04.036Z,99309.31
2023-01-09T07:59:09.339Z,99316.22
2023-01-09T08:01:12.880Z,99321.47
2023-01-09T08:03:16.754Z,99325.91
2023-01-09T08:05:20.637Z,99334.69
2023-01-09T08:07:24.293Z,99342.66
2023-01-09T08:09:27.840Z,99347.91
2023-01-09T08:11:32.377Z,99346.22
2023-01-09T08:13:36.198Z,99361.13
2023-01-09T08:15:41.255Z,99358.59
2023-01-09T08:17:46.781Z,99366.56
2023-01-09T08:19:50.350Z,99364.03
2023-01-09T08:21:53.980Z,99366.78
2023-01-09T08:23:57.551Z,99372.94
2023-01-09T08:26:01.114Z,99368.72
2023-01-09T08:28:04.518Z,99375.66
2023-01-09T08:30:09.946Z,99388.78
2023-01-09T08:32:15.148Z,99384.38
2023-01-09T08:34:18.633Z,99392.22
2023-01-09T08:36:22.237Z,99396.44
2023-01-09T08:38:25.962Z,99399.91
2023-01-09T08:40:29.563Z,99411.16
2023-01-09T08:42:50.727Z,99413.69
2023-01-09T08:45:11.362Z,99423.25
2023-01-09T08:47:17.866Z,99419.75
2023-01-09T08:49:21.454Z,99419.84
2023-01-09T08:51:24.917Z,99434.66
2023-01-09T08:53:28.829Z,99432.03
2023-01-09T08:55:32.425Z,99441.69
2023-01-09T08:57:36.121Z,99448.72
2023-01-09T08:59:39.796Z,99457.50
2023-01-09T09:01:43.253Z,99449.63
2023-01-09T09:03:48.479Z,99466.25
2023-01-09T09:05:52.105Z,99463.50
2023-01-09T09:07:56.707Z,99479.81
2023-01-09T09:10:00.275Z,99475.22
2023-01-09T09:12:03.874Z,99466.50
2023-01-09T09:14:27.915Z,99463.88
2023-01-09T09:16:31.431Z,99471.75
2023-01-09T09:18:35.107Z,99471.09
2023-01-09T09:20:41.346Z,99472.88
2023-01-09T09:22:46.954Z,99480.94
2023-01-09T09:24:50.445Z,99486.28
2023-01-09T09:26:53.912Z,99488.16
2023-01-09T09:28:57.379Z,99489.94
2023-01-09T09:31:01.056Z,99496.84
2023-01-09T09:33:05.049Z,99498.34
2023-01-09T09:35:09.578Z,99498.19
2023-01-09T09:37:14.776Z,99512.03
2023-01-09T09:39:18.236Z,99503.34
2023-01-09T09:41:52.570Z,99508.69
2023-01-09T09:44:30.806Z,99513.06
2023-01-09T09:46:43.108Z,99519.16
2023-01-09T09:48:53.228Z,99510.53
2023-01-09T09:51:27.561Z,99519.34
2023-01-09T09:53:38.453Z,99531.53
2023-01-09T09:55:43.381Z,99533.22
2023-01-09T09:57:48.518Z,99536.56
2023-01-09T09:59:53.649Z,99541.75
2023-01-09T10:02:00.645Z,99558.22
2023-01-09T10:04:08.171Z,99563.28
2023-01-09T10:06:23.107Z,99568.47
2023-01-09T10:08:38.406Z,99556.84
2023-01-09T10:10:46.167Z,99576.78
2023-01-09T10:12:55.803Z,99587.97
2023-01-09T10:15:01.237Z,99581.69
2023-01-09T10:17:26.147Z,99592.00
2023-01-09T10:19:53.576Z,99585.63
2023-01-09T10:22:07.996Z,99587.22
2023-01-09T10:24:28.099Z,99593.25
2023-01-09T10:26:40.725Z,99603.44
2023-01-09T10:29:01.659Z,99603.25
2023-01-09T10:31:15.791Z,99597.66
2023-01-09T10:33:47.418Z,99620.78
2023-01-09T10:36:23.230Z,99614.34
2023-01-09T10:38:33.773Z,99620.03
2023-01-09T10:40:44.235Z,99616.28
2023-01-09T10:42:51.899Z,99631.88
2023-01-09T10:45:00.995Z,99636.94
2023-01-09T10:47:08.898Z,99649.03
2023-01-09T10:49:16.009Z,99649.72
2023-01-09T10:51:22.279Z,99649.63
2023-01-09T10:53:30.169Z,99652.16
2023-01-09T10:55:42.264Z,99643.97
2023-01-09T10:57:48.111Z,99639.47
2023-01-09T10:59:52.095Z,99634.94
2023-01-09T11:01:56.082Z,99636.75
2023-01-09T11:04:01.872Z,99637.47
2023-01-09T11:06:17.775Z,99628.78
2023-01-09T11:08:28.813Z,99640.88
2023-01-09T11:10:48.535Z,99656.75
2023-01-09T11:12:51.953Z,99660.19
2023-01-09T11:14:55.784Z,99641.72
2023-01-09T11:17:01.568Z,99650.34
2023-01-09T11:19:05.383Z,99655.41
2023-01-09T11:21:29.647Z,99664.13
2023-01-09T11:23:34.995Z,99674.47
2023-01-09T11:25:55.708Z,99675.19
2023-01-09T11:28:08.382Z,99684.47
2023-01-09T11:30:27.129Z,99672.94
2023-01-09T11:32:32.155Z,99678.97
2023-01-09T11:34:39.235Z,99691.25
2023-01-09T11:36:43.534Z,99686.09
2023-01-09T11:38:51.111Z,99690.41
2023-01-09T11:40:59.104Z,99686.84
2023-01-09T11:43:06.132Z,99691.25
2023-01-09T11:45:16.995Z,99697.34
2023-01-09T11:47:27.007Z,99683.25
2023-01-09T11:49:32.205Z,99687.56
2023-01-09T11:51:37.181Z,99685.81
2023-01-09T11:53:52.369Z,99677.81
2023-01-09T11:56:03.161Z,99691.69
2023-01-09T11:58:07.194Z,99686.53
2023-01-09T12:00:26.221Z,99688.13
2023-01-09T12:02:53.705Z,99682.78
2023-01-09T12:05:02.710Z,99680.81
2023-01-09T12:07:34.610Z,99687.56
2023-01-09T12:09:45.460Z,99686.59
2023-01-09T12:11:55.017Z,99711.13
2023-01-09T12:14:24.123Z,99726.72
2023-01-09T12:16:36.000Z,99711.69
2023-01-09T12:18:51.895Z,99701.06
2023-01-09T12:21:06.526Z,99704.44
2023-01-09T12:23:30.979Z,99712.88
2023-01-09T12:25:46.343Z,99713.56
2023-01-09T12:28:06.443Z,99716.81
2023-01-09T12:30:26.581Z,99735.06
2023-01-09T12:32:47.619Z,99722.63
2023-01-09T12:35:00.662Z,99730.31
2023-01-09T12:37:18.285Z,99732.94
2023-01-09T12:39:34.389Z,99714.44
2023-01-09T12:41:54.736Z,99743.28
2023-01-09T12:44:27.358Z,99743.28
2023-01-09T12:46:49.236Z,99735.31
2023-01-09T12:49:17.411Z,99756.25
2023-01-09T12:51:33.848Z,99765.75
2023-01-09T12:53:42.134Z,99757.78
2023-01-09T12:55:51.295Z,99768.97
2023-01-09T12:57:57.918Z,99776.75
2023-01-09T13:00:07.549Z,99777.47
2023-01-09T13:02:22.305Z,99785.16
2023-01-09T13:04:32.102Z,99791.19
2023-01-09T13:06:39.494Z,99791.19
2023-01-09T13:08:46.295Z,99801.53
2023-01-09T13:10:53.496Z,99792.69
2023-01-09T13:12:59.528Z,99783.84
2023-01-09T13:15:07.929Z,99783.56
2023-01-09T13:17:17.475Z,99799.03
2023-01-09T13:19:26.867Z,99791.81
2023-01-09T13:21:30.891Z,99787.41
2023-01-09T13:23:43.780Z,99795.28
2023-01-09T13:25:49.345Z,99790.88
2023-01-09T13:27:58.026Z,99782.88
2023-01-09T13:30:20.761Z,99779.09
2023-01-09T13:32:41.043Z,99763.75
2023-01-09T13:34:48.073Z,99776.59
2023-01-09T13:36:54.305Z,99774.72
2023-01-09T13:38:59.355Z,99771.34
2023-01-09T13:41:30.957Z,99782.06
2023-01-09T13:43:56.171Z,99797.22
2023-01-09T13:46:01.405Z,99810.47
2023-01-09T13:48:40.428Z,99796.38
2023-01-09T13:50:45.270Z,99815.63
2023-01-09T13:52:48.996Z,99823.53
2023-01-09T13:55:05.379Z,99811.25
2023-01-09T13:57:35.015Z,99839.25
2023-01-09T13:59:38.987Z,99820.91
2023-01-09T14:01:47.765Z,99819.13
2023-01-09T14:04:34.603Z,99823.47
2023-01-09T14:06:38.570Z,99823.88
2023-01-09T14:08:43.292Z,99814.13
2023-01-09T14:10:51.429Z,99824.44
2023-01-09T14:12:57.189Z,99824.44
2023-01-09T14:15:03.449Z,99829.72
2023-01-09T14:17:18.821Z,99832.44
2023-01-09T14:19:37.354Z,99828.22
2023-01-09T14:21:50.838Z,99836.97
2023-01-09T14:24:05.249Z,99844.00
2023-01-09T14:26:19.429Z,99850.22
2023-01-09T14:28:24.640Z,99858.22
2023-01-09T14:30:34.782Z,99864.44
2023-01-09T14:32:44.875Z,99871.59
2023-01-09T14:34:52.630Z,99877.88
2023-01-09T14:37:00.405Z,99878.66
2023-01-09T14:39:05.083Z,99895.38
2023-01-09T14:41:21.363Z,99901.47
2023-01-09T14:43:40.868Z,99901.47
2023-01-09T14:45:50.112Z,99918.97
2023-01-09T14:47:59.593Z,99910.16
2023-01-09T14:50:08.772Z,99926.66
2023-01-09T14:52:22.742Z,99927.44
2023-01-09T14:54:30.332Z,99947.56
2023-01-09T14:56:35.010Z,99937.09
2023-01-09T14:58:38.632Z,99940.41
2023-01-09T15:00:59.922Z,99957.81
2023-01-09T15:03:05.808Z,99953.19
2023-01-09T15:05:12.089Z,99965.34
2023-01-09T15:07:23.589Z,99954.69
2023-01-09T15:09:29.987Z,99966.84
2023-01-09T15:11:35.074Z,99972.00
2023-01-09T15:13:45.679Z,99987.59
2023-01-09T15:15:50.495Z,100012.91
2023-01-09T15:17:57.269Z,100000.47
2023-01-09T15:20:06.109Z,100017.97
2023-01-09T15:22:24.110Z,100015.25
2023-01-09T15:24:30.069Z,100017.66
2023-01-09T15:26:33.681Z,100035.28
2023-01-09T15:28:44.058Z,100035.47
2023-01-09T15:30:47.821Z,100043.59
2023-01-09T15:32:53.243Z,100038.56
2023-01-09T15:34:58.159Z,100039.81
2023-01-09T15:37:03.769Z,100054.09
2023-01-09T15:39:08.569Z,100060.41
2023-01-09T15:41:36.953Z,100075.47
2023-01-09T15:43:44.622Z,100070.38
2023-01-09T15:45:49.308Z,100085.44
2023-01-09T15:47:55.094Z,100080.34
2023-01-09T15:50:00.600Z,100091.81
2023-01-09T15:52:07.922Z,100090.31
2023-01-09T15:54:15.920Z,100090.50
2023-01-09T15:56:24.262Z,100101.09
2023-01-09T15:58:29.751Z,100097.81
2023-01-09T16:00:45.692Z,100108.53
2023-01-09T16:03:07.097Z,100117.47
2023-01-09T16:05:15.425Z,100123.75
2023-01-09T16:07:22.096Z,100122.97
2023-01-09T16:09:28.531Z,100134.44
2023-01-09T16:11:35.281Z,100119.75
2023-01-09T16:13:45.688Z,100125.97
2023-01-09T16:15:49.634Z,100128.75
2023-01-09T16:18:19.656Z,100123.69
2023-01-09T16:20:27.333Z,100128.22
2023-01-09T16:22:34.232Z,100144.09
2023-01-09T16:24:42.288Z,100136.25
2023-01-09T16:26:45.783Z,100138.16
2023-01-09T16:28:49.425Z,100161.16
2023-01-09T16:30:55.648Z,100160.31
2023-01-09T16:32:59.246Z,100163.88
2023-01-09T16:35:06.050Z,100156.03
2023-01-09T16:37:12.457Z,100164.03
2023-01-09T16:39:21.043Z,100172.84
2023-01-09T16:41:42.550Z,100166.75
2023-01-09T16:43:46.509Z,100182.63
2023-01-09T16:45:50.889Z,100176.56
2023-01-09T16:47:54.739Z,100177.50
2023-01-09T16:49:58.111Z,100186.25
2023-01-09T16:52:03.399Z,100189.91
2023-01-09T16:54:07.152Z,100195.16
2023-01-09T16:56:16.308Z,100196.00
2023-01-09T16:58:24.904Z,100202.97
2023-01-09T17:00:28.460Z,100209.06
2023-01-09T17:02:32.007Z,100204.59
2023-01-09T17:04:35.798Z,100212.47
2023-01-09T17:06:40.197Z,100199.22
2023-01-09T17:08:44.303Z,100210.69
2023-01-09T17:10:47.901Z,100213.41
2023-01-09T17:12:53.168Z,100214.34
2023-01-09T17:14:56.800Z,100216.13
2023-01-09T17:17:00.410Z,100213.59
2023-01-09T17:19:04.467Z,100218.06
2023-01-09T17:21:07.961Z,100228.69
2023-01-09T17:23:11.861Z,100224.44
2023-01-09T17:25:49.359Z,100241.91
2023-01-09T17:28:08.168Z,100245.47
2023-01-09T17:30:18.829Z,100239.28
2023-01-09T17:32:22.937Z,100244.56
2023-01-09T17:34:26.482Z,100247.19
2023-01-09T17:36:32.479Z,100248.09
2023-01-09T17:38:36.153Z,100254.22
2023-01-09T17:40:39.761Z,100252.63
2023-01-09T17:42:43.262Z,100249.13
2023-01-09T17:44:48.172Z,100261.44
2023-01-09T17:46:51.647Z,100264.91
2023-01-09T17:48:55.483Z,100270.16
2023-01-09T17:50:59.138Z,100275.50
2023-01-09T17:53:02.640Z,100276.38
2023-01-09T17:55:07.297Z,100276.47
2023-01-09T17:57:15.879Z,100278.91
2023-01-09T17:59:19.613Z,100287.56
2023-01-09T18:01:24.695Z,100290.97
2023-01-09T18:03:33.527Z,100289.09
2023-01-09T18:05:37.622Z,100297.69
2023-01-09T18:07:41.144Z,100295.88
2023-01-09T18:09:45.583Z,100302.84
2023-01-09T18:11:49.367Z,100303.69
2023-01-09T18:13:54.210Z,100298.50
2023-01-09T18:15:57.987Z,100310.00
2023-01-09T18:18:02.934Z,100301.31
2023-01-09T18:20:07.860Z,100308.47
2023-01-09T18:22:11.425Z,100317.44
2023-01-09T18:24:15.020Z,100317.59
2023-01-09T18:26:21.542Z,100311.66
2023-01-09T18:28:25.517Z,100311.81
2023-01-09T18:30:29.408Z,100308.34
2023-01-09T18:32:33.041Z,100315.47
2023-01-09T18:34:38.951Z,100307.72
2023-01-09T18:36:42.686Z,100313.06
2023-01-09T18:38:46.253Z,100315.78
2023-01-09T18:40:49.965Z,100320.25
2023-01-09T18:42:53.512Z,100324.84
2023-01-09T18:44:57.007Z,100322.31
2023-01-09T18:47:02.011Z,100316.34
2023-01-09T18:49:06.620Z,100313.81
2023-01-09T18:51:11.484Z,100318.28
2023-01-09T18:53:14.998Z,100318.38
2023-01-09T18:55:18.662Z,100323.72
2023-01-09T18:57:22.392Z,100319.38
2023-01-09T18:59:25.975Z,100328.22
2023-01-09T19:01:31.397Z,100323.78
2023-01-09T19:03:34.952Z,100325.66
2023-01-09T19:05:38.632Z,100317.84
2023-01-09T19:07:43.787Z,100318.00
2023-01-09T19:09:47.589Z,100320.53
2023-01-09T19:11:51.061Z,100323.16
2023-01-09T19:13:55.022Z,100331.94
2023-01-09T19:15:59.178Z,100332.84
2023-01-09T19:18:02.825Z,100333.78
2023-01-09T19:20:08.046Z,100338.19
2023-01-09T19:22:11.446Z,100339.19
2023-01-09T19:24:16.411Z,100339.19
2023-01-09T19:26:23.970Z,100340.13
2023-01-09T19:28:27.764Z,100357.69
2023-01-09T19:30:31.489Z,100344.53
2023-01-09T19:32:35.439Z,100348.16
2023-01-09T19:34:39.150Z,100340.44
2023-01-09T19:36:44.994Z,100341.38
2023-01-09T19:38:49.334Z,100341.53
2023-01-09T19:40:54.541Z,100352.16
2023-01-09T19:43:00.506Z,100352.25
2023-01-09T19:45:04.681Z,100351.34
2023-01-09T19:47:08.214Z,100361.84
2023-01-09T19:49:12.187Z,100368.72
2023-01-09T19:51:17.104Z,100383.50
2023-01-09T19:53:20.884Z,100381.72
2023-01-09T19:55:24.720Z,100400.03
2023-01-09T19:57:29.926Z,100411.31
2023-01-09T19:59:35.209Z,100418.22
2023-01-09T20:01:41.932Z,100411.16
2023-01-09T20:03:46.807Z,100403.97
2023-01-09T20:05:50.382Z,100414.56
2023-01-09T20:07:55.816Z,100418.13
2023-01-09T20:09:59.583Z,100424.38
2023-01-09T20:12:05.472Z,100436.72
2023-01-09T20:14:12.559Z,100445.56
2023-01-09T20:16:18.756Z,100455.28
2023-01-09T20:18:22.400Z,100461.53
2023-01-09T20:20:28.317Z,100459.91
2023-01-09T20:22:32.069Z,100476.63
2023-01-09T20:24:37.416Z,100475.75
2023-01-09T20:26:41.904Z,100472.28
2023-01-09T20:28:45.608Z,100467.13
2023-01-09T20:30:53.266Z,100457.59
2023-01-09T20:32:58.744Z,100467.25
2023-01-09T20:35:03.639Z,100459.44
2023-01-09T20:37:07.593Z,100465.63
2023-01-09T20:39:13.221Z,100470.03
2023-01-09T20:41:23.910Z,100459.50
2023-01-09T20:43:28.201Z,100469.94
2023-01-09T20:45:32.484Z,100469.94
2023-01-09T20:47:37.780Z,100468.19
2023-01-09T20:49:41.319Z,100463.78
2023-01-09T20:51:47.475Z,100472.56
2023-01-09T20:53:55.900Z,100473.53
2023-01-09T20:56:01.816Z,100468.25
2023-01-09T20:58:05.382Z,100481.44
2023-01-09T21:00:10.272Z,100484.16
2023-01-09T21:02:15.231Z,100492.03
2023-01-09T21:04:20.417Z,100494.66
2023-01-09T21:06:25.600Z,100481.53
2023-01-09T21:08:29.369Z,100481.53
2023-01-09T21:10:33.899Z,100484.16
2023-01-09T21:12:37.877Z,100484.16
2023-01-09T21:14:41.747Z,100485.88
2023-01-09T21:16:53.686Z,100482.41
2023-01-09T21:18:58.385Z,100480.53
2023-01-09T21:21:07.090Z,100472.66
2023-01-09T21:23:11.061Z,100461.16
2023-01-09T21:25:16.005Z,100460.22
2023-01-09T21:27:20.671Z,100451.47
2023-01-09T21:29:24.319Z,100450.56
2023-01-09T21:31:34.989Z,100450.56
2023-01-09T21:33:39.182Z,100447.84
2023-01-09T21:35:42.891Z,100447.84
2023-01-09T21:37:48.132Z,100451.28
2023-01-09T21:39:51.876Z,100450.41
2023-01-09T21:42:13.013Z,100454.75
2023-01-09T21:44:34.087Z,100454.66
2023-01-09T21:46:52.972Z,100466.03
2023-01-09T21:48:56.711Z,100451.03
2023-01-09T21:51:03.673Z,100444.03
2023-01-09T21:53:10.001Z,100454.44
2023-01-09T21:55:14.600Z,100453.59
2023-01-09T21:57:18.336Z,100456.13
2023-01-09T21:59:22.262Z,100451.75
2023-01-09T22:01:26.061Z,100458.72
2023-01-09T22:03:30.117Z,100449.88
2023-01-09T22:05:34.028Z,100448.97
2023-01-09T22:07:37.980Z,100435.81
2023-01-09T22:09:44.659Z,100434.81
2023-01-09T22:11:49.091Z,100442.63
2023-01-09T22:13:54.131Z,100436.38
2023-01-09T22:15:59.642Z,100438.16
2023-01-09T22:18:03.492Z,100445.88
2023-01-09T22:20:08.354Z,100455.47
2023-01-09T22:22:12.086Z,100436.13
2023-01-09T22:24:18.581Z,100439.63
2023-01-09T22:26:23.950Z,100436.91
2023-01-09T22:28:27.498Z,100438.63
2023-01-09T22:30:31.463Z,100447.25
2023-01-09T22:32:36.374Z,100443.72
2023-01-09T22:34:40.103Z,100446.25
2023-01-09T22:36:44.009Z,100446.19
2023-01-09T22:38:48.388Z,100439.09
2023-01-09T22:40:52.973Z,100439.00
2023-01-09T22:42:58.241Z,100435.44
2023-01-09T22:45:01.971Z,100423.22
2023-01-09T22:47:06.203Z,100431.94
2023-01-09T22:49:12.302Z,100419.69
2023-01-09T22:51:18.263Z,100427.47
2023-01-09T22:53:21.946Z,100424.84
2023-01-09T22:55:26.935Z,100409.00
2023-01-09T22:57:30.596Z,100415.09
2023-01-09T22:59:35.729Z,100415.09
2023-01-09T23:01:39.456Z,100405.44
2023-01-09T23:03:43.336Z,100407.19
2023-01-09T23:05:47.337Z,100412.47
2023-01-09T23:07:51.293Z,100409.66
2023-01-09T23:09:56.594Z,100402.66
2023-01-09T23:12:06.932Z,100416.56
2023-01-09T23:14:11.381Z,100414.88
2023-01-09T23:16:16.518Z,100400.72
2023-01-09T23:18:20.843Z,100413.00
2023-01-09T23:20:25.467Z,100407.66
2023-01-09T23:22:29.751Z,100404.03
2023-01-09T23:24:33.742Z,100400.38
2023-01-09T23:26:38.898Z,100395.13
2023-01-09T23:28:42.380Z,100398.69
2023-01-09T23:30:46.594Z,100406.56
2023-01-09T23:32:51.863Z,100410.00
2023-01-09T23:34:55.734Z,100404.63
2023-01-09T23:36:59.195Z,100395.91
2023-01-09T23:39:04.325Z,100382.75
2023-01-09T23:41:08.611Z,100370.53
2023-01-09T23:43:11.779Z,100371.47
2023-01-09T23:45:15.154Z,100388.78
2023-01-09T23:47:18.444Z,100381.81
2023-01-09T23:49:23.421Z,100379.19
2023-01-09T23:51:26.844Z,100369.63
2023-01-09T23:53:33.183Z,100363.41
2023-01-09T23:55:37.728Z,100362.56
2023-01-09T23:57:41.173Z,100361.63
2023-01-09T23:59:44.625Z,100364.19
